createdAt,value
2019-05-26T00:00:09.788Z,97.66
2019-05-26T00:01:09.807Z,97.75
2019-05-26T00:02:09.756Z,97.85
2019-05-26T00:03:09.848Z,97.56
2019-05-26T00:04:09.806Z,97.94
2019-05-26T00:05:09.843Z,98.52
2019-05-26T00:06:09.835Z,98.42
2019-05-26T00:07:09.912Z,98.75
2019-05-26T00:08:09.976Z,98.32
2019-05-26T00:09:09.903Z,98.37
2019-05-26T00:10:10.223Z,98.47
2019-05-26T00:11:09.912Z,98.28
2019-05-26T00:12:10.030Z,98.90
2019-05-26T00:13:10.059Z,98.99
2019-05-26T00:14:10.090Z,98.71
2019-05-26T00:15:10.025Z,98.03
2019-05-26T00:16:10.048Z,98.18
2019-05-26T00:17:10.048Z,98.32
2019-05-26T00:18:10.114Z,98.75
2019-05-26T00:19:10.162Z,98.71
2019-05-26T00:20:10.137Z,98.32
2019-05-26T00:21:10.077Z,99.04
2019-05-26T00:22:10.184Z,98.37
2019-05-26T00:23:10.366Z,97.52
2019-05-26T00:24:10.202Z,99.18
2019-05-26T00:25:10.159Z,98.23
2019-05-26T00:26:10.302Z,96.89
2019-05-26T00:27:10.231Z,97.85
2019-05-26T00:28:10.346Z,97.71
2019-05-26T00:29:10.347Z,97.56
2019-05-26T00:30:10.244Z,97.89
2019-05-26T00:31:10.220Z,97.71
2019-05-26T00:32:10.368Z,97.85
2019-05-26T00:33:10.302Z,97.18
2019-05-26T00:34:10.333Z,97.18
2019-05-26T00:35:10.412Z,97.47
2019-05-26T00:36:10.405Z,96.56
2019-05-26T00:37:10.292Z,97.23
2019-05-26T00:38:10.361Z,97.03
2019-05-26T00:39:10.471Z,97.32
2019-05-26T00:40:10.422Z,96.66
2019-05-26T00:41:10.467Z,97.03
2019-05-26T00:42:10.510Z,96.51
2019-05-26T00:43:10.442Z,95.98
2019-05-26T00:44:10.543Z,96.32
2019-05-26T00:45:10.515Z,95.51
2019-05-26T00:46:10.509Z,95.17
2019-05-26T00:47:10.496Z,95.08
2019-05-26T00:48:10.557Z,95.32
2019-05-26T00:49:10.573Z,95.27
2019-05-26T00:50:10.573Z,95.51
2019-05-26T00:51:10.666Z,95.17
2019-05-26T00:52:10.608Z,94.89
2019-05-26T00:53:10.571Z,95.12
2019-05-26T00:54:10.761Z,94.89
2019-05-26T00:55:10.774Z,93.93
2019-05-26T00:56:10.739Z,94.41
2019-05-26T00:57:10.689Z,93.84
2019-05-26T00:58:10.717Z,94.07
2019-05-26T00:59:10.806Z,94.27
2019-05-26T01:00:10.786Z,94.27
2019-05-26T01:01:10.730Z,94.31
2019-05-26T01:02:10.833Z,94.22
2019-05-26T01:03:10.789Z,93.31
2019-05-26T01:04:10.927Z,93.07
2019-05-26T01:05:11.545Z,92.26
2019-05-26T01:06:10.933Z,92.50
2019-05-26T01:07:10.935Z,92.41
2019-05-26T01:08:10.858Z,92.69
2019-05-26T01:09:10.970Z,92.60
2019-05-26T01:10:10.926Z,92.21
2019-05-26T01:11:10.969Z,90.88
2019-05-26T01:12:10.945Z,90.97
2019-05-26T01:13:11.052Z,91.45
2019-05-26T01:14:10.896Z,91.93
2019-05-26T01:15:11.042Z,91.07
2019-05-26T01:16:11.030Z,90.78
2019-05-26T01:17:11.212Z,90.31
2019-05-26T01:18:11.136Z,90.88
2019-05-26T01:19:11.135Z,91.26
2019-05-26T01:20:11.091Z,90.69
2019-05-26T01:21:11.092Z,90.97
2019-05-26T01:22:11.106Z,90.50
2019-05-26T01:23:11.077Z,88.59
2019-05-26T01:24:11.235Z,89.45
2019-05-26T01:25:11.090Z,89.06
2019-05-26T01:26:11.197Z,88.78
2019-05-26T01:27:11.173Z,88.97
2019-05-26T01:28:11.273Z,88.68
2019-05-26T01:29:11.202Z,88.59
2019-05-26T01:30:11.254Z,87.82
2019-05-26T01:31:11.203Z,87.25
2019-05-26T01:32:11.296Z,87.06
2019-05-26T01:33:11.242Z,87.35
2019-05-26T01:34:11.253Z,86.96
2019-05-26T01:35:11.403Z,87.35
2019-05-26T01:36:11.370Z,86.68
2019-05-26T01:37:11.424Z,86.20
2019-05-26T01:38:23.333Z,85.44
2019-05-26T01:39:11.537Z,85.91
2019-05-26T01:40:11.534Z,85.53
2019-05-26T01:41:11.394Z,84.20
2019-05-26T01:42:11.479Z,83.24
2019-05-26T01:43:11.435Z,83.53
2019-05-26T01:44:11.502Z,83.81
2019-05-26T01:45:11.506Z,82.86
2019-05-26T01:46:11.439Z,82.38
2019-05-26T01:47:11.458Z,82.76
2019-05-26T01:48:11.566Z,82.76
2019-05-26T01:49:11.597Z,81.14
2019-05-26T01:50:11.577Z,81.52
2019-05-26T01:51:11.594Z,80.76
2019-05-26T01:52:11.593Z,81.04
2019-05-26T01:53:11.621Z,81.24
2019-05-26T01:54:11.601Z,80.76
2019-05-26T01:55:11.632Z,81.43
2019-05-26T01:56:11.644Z,81.14
2019-05-26T01:57:11.670Z,80.85
2019-05-26T01:58:11.644Z,80.85
2019-05-26T01:59:11.643Z,80.66
2019-05-26T02:00:11.852Z,79.71
2019-05-26T02:01:11.761Z,78.75
2019-05-26T02:02:11.736Z,79.23
2019-05-26T02:03:11.758Z,78.66
2019-05-26T02:04:11.852Z,79.04
2019-05-26T02:05:11.757Z,78.94
2019-05-26T02:06:11.876Z,78.09
2019-05-26T02:07:11.808Z,78.56
2019-05-26T02:08:12.258Z,78.37
2019-05-26T02:21:16.114Z,71.75
2019-05-26T02:22:14.697Z,71.66
2019-05-26T02:24:20.610Z,70.32
2019-05-26T02:25:19.597Z,69.74
2019-05-26T02:26:19.583Z,68.60
2019-05-26T02:27:19.871Z,68.79
2019-05-26T02:28:19.623Z,67.36
2019-05-26T02:29:19.594Z,67.93
2019-05-26T02:30:20.701Z,68.60
2019-05-26T02:31:19.689Z,68.79
2019-05-26T02:32:19.924Z,68.60
